Time;durP1;ratioP1;P1;durP2;ratioP2;P2;SDS_P1;SDS_P2;PMS_P1;PMS_P2;Temp;Humidity;BMP_temperature;BMP_pressure;BME280_temperature;BME280_humidity;BME280_pressure;Samples;Min_cycle;Max_cycle;Signal;HPM_P1;HPM_P2
2023/04/28 00:01:26;;;;;;;2.05;0.80;;;;;;;19.15;38.37;96769.81;5039990;28;20026;-29
2023/04/28 00:03:52;;;;;;;2.90;0.85;;;;;;;19.17;38.24;96770.81;5031994;28;20028;-30
2023/04/28 00:06:17;;;;;;;1.85;0.95;;;;;;;18.99;38.63;96769.03;5042232;28;20078;-30
2023/04/28 00:08:43;;;;;;;2.80;0.95;;;;;;;19.08;38.39;96767.41;5045441;28;20025;-29
2023/04/28 00:11:09;;;;;;;1.95;1.00;;;;;;;19.08;38.39;96767.41;5043485;28;20025;-30
2023/04/28 00:13:35;;;;;;;3.17;1.00;;;;;;;19.08;38.73;96767.41;5035904;28;20074;-30
2023/04/28 00:16:01;;;;;;;3.03;0.90;;;;;;;19.08;38.95;96773.69;5037149;28;20025;-33
2023/04/28 00:18:27;;;;;;;3.30;0.90;;;;;;;19.00;39.05;96765.06;5040684;28;20044;-31
2023/04/28 00:20:54;;;;;;;2.45;1.00;;;;;;;19.15;38.87;96764.31;5042998;28;20045;-30
2023/04/28 00:23:19;;;;;;;5.45;2.85;;;;;;;19.13;38.94;96769.53;5036874;28;20112;-32
2023/04/28 00:26:00;;;;;;;4.55;2.75;;;;;;;19.13;38.92;96766.78;5043417;28;20112;-30
2023/04/28 00:28:25;;;;;;;4.35;2.08;;;;;;;19.15;38.86;96764.31;5043542;28;20362;-30
2023/04/28 00:30:50;;;;;;;3.15;1.85;;;;;;;18.99;38.89;96771.03;5044903;28;20031;-29
2023/04/28 00:33:16;;;;;;;3.90;1.67;;;;;;;19.09;38.92;96757.94;5041188;28;20064;-29
2023/04/28 00:35:41;;;;;;;2.20;1.00;;;;;;;19.05;39.08;96771.13;5043622;28;20021;-31
2023/04/28 00:38:07;;;;;;;3.97;1.23;;;;;;;19.00;38.95;96759.56;5047679;28;20021;-30
2023/04/28 00:40:36;;;;;;;3.28;1.02;;;;;;;18.98;39.03;96761.28;5046256;28;20055;-31
2023/04/28 00:43:02;;;;;;;3.70;1.25;;;;;;;18.89;39.37;96764.88;5043602;28;20060;-30
2023/04/28 00:45:28;;;;;;;3.38;0.95;;;;;;;19.05;38.91;96760.88;5036330;28;20094;-29
2023/04/28 00:47:57;;;;;;;2.70;1.00;;;;;;;19.06;38.99;96756.91;5034928;28;20072;-31
2023/04/28 00:50:24;;;;;;;1.75;0.90;;;;;;;19.00;39.33;96747.81;5035903;28;20023;-30
2023/04/28 00:52:50;;;;;;;3.75;1.40;;;;;;;18.98;39.49;96761.28;5035617;28;20493;-31
2023/04/28 00:55:17;;;;;;;3.40;1.20;;;;;;;19.21;39.21;96756.91;5035908;28;20551;-30
2023/04/28 00:57:43;;;;;;;2.70;1.10;;;;;;;19.17;39.59;96756.31;5035934;28;20101;-29
2023/04/28 01:00:09;;;;;;;3.60;1.17;;;;;;;19.03;39.69;96755.13;5035663;28;20113;-30
2023/04/28 01:02:36;;;;;;;2.65;1.10;;;;;;;19.01;39.99;96752.09;5035717;28;20025;-30
2023/04/28 01:05:02;;;;;;;3.53;1.48;;;;;;;18.93;40.30;96748.19;5035353;28;20029;-30
2023/04/28 01:07:30;;;;;;;2.17;1.20;;;;;;;19.12;40.10;96746.00;5040856;28;20033;-30
2023/04/28 01:09:56;;;;;;;1.48;0.90;;;;;;;18.87;40.71;96759.09;5035448;28;20056;-32
2023/04/28 01:12:21;;;;;;;5.40;1.10;;;;;;;18.95;40.34;96767.72;5035353;28;20453;-30
2023/04/28 01:14:48;;;;;;;4.03;0.90;;;;;;;19.08;40.07;96759.19;5035326;28;20072;-30
2023/04/28 01:17:16;;;;;;;1.65;1.05;;;;;;;19.11;40.16;96766.47;5035163;28;20060;-31
2023/04/28 01:19:41;;;;;;;4.82;1.15;;;;;;;19.02;40.15;96759.84;5035224;28;20025;-30
2023/04/28 01:22:09;;;;;;;2.25;1.00;;;;;;;19.13;40.09;96766.78;5035543;28;20022;-29
2023/04/28 01:24:34;;;;;;;5.97;1.52;;;;;;;19.11;40.13;96769.22;5035033;28;20052;-31
2023/04/28 01:27:00;;;;;;;2.70;1.30;;;;;;;19.02;40.28;96764.59;5035359;28;20556;-30
2023/04/28 01:29:26;;;;;;;3.35;1.38;;;;;;;18.97;40.41;96770.75;5035192;28;20025;-32
2023/04/28 01:31:52;;;;;;;2.85;0.90;;;;;;;19.27;39.87;96772.25;5034289;28;20110;-29
2023/04/28 01:34:17;;;;;;;3.90;1.10;;;;;;;19.06;40.26;96769.88;5034785;28;20037;-30
2023/04/28 01:36:42;;;;;;;3.85;1.33;;;;;;;19.10;40.25;96775.97;5035161;28;20535;-32
2023/04/28 01:39:08;;;;;;;3.80;1.17;;;;;;;19.05;40.07;96773.84;5035702;28;20014;-29
2023/04/28 01:41:33;;;;;;;3.25;1.20;;;;;;;18.90;40.35;96776.63;5033725;28;20046;-27
2023/04/28 01:43:59;;;;;;;4.68;1.02;;;;;;;19.04;40.11;96773.09;5034876;28;20017;-30
2023/04/28 01:46:25;;;;;;;2.97;0.95;;;;;;;18.94;40.00;96761.44;5034787;28;20032;-30
2023/04/28 01:48:50;;;;;;;3.15;1.00;;;;;;;18.94;40.07;96768.94;5034580;28;20136;-30
2023/04/28 01:51:16;;;;;;;2.30;0.90;;;;;;;19.15;39.70;96765.06;5034790;28;20098;-29
2023/04/28 01:53:41;;;;;;;2.03;0.93;;;;;;;19.01;39.84;96777.59;5034755;28;20531;-29
2023/04/28 01:56:07;;;;;;;2.38;1.10;;;;;;;18.91;39.89;96772.66;5034633;28;20036;-30
2023/04/28 01:58:32;;;;;;;2.63;1.08;;;;;;;18.85;39.71;96774.53;5034648;28;20032;-30
2023/04/28 02:00:59;;;;;;;4.55;1.30;;;;;;;18.80;39.85;96773.19;5034683;28;20156;-31
2023/04/28 02:03:26;;;;;;;3.85;1.10;;;;;;;18.82;39.63;96770.72;5034612;28;20025;-30
2023/04/28 02:05:52;;;;;;;2.28;1.17;;;;;;;18.81;39.75;96777.44;5036802;28;20151;-30
2023/04/28 02:08:17;;;;;;;2.10;1.20;;;;;;;18.99;39.03;96782.03;5034542;28;20046;-29
2023/04/28 02:10:43;;;;;;;4.97;1.40;;;;;;;18.82;39.34;96776.22;5034391;28;20346;-30
2023/04/28 02:13:09;;;;;;;4.30;1.50;;;;;;;18.82;39.17;96781.72;5034252;28;20021;-30
2023/04/28 02:15:39;;;;;;;2.60;1.10;;;;;;;18.67;39.80;96781.69;5034103;28;20479;-30
2023/04/28 02:18:04;;;;;;;2.17;1.27;;;;;;;18.85;39.54;96786.28;5034440;28;20449;-30
2023/04/28 02:20:30;;;;;;;5.30;1.52;;;;;;;18.65;40.17;96780.66;5043026;28;20021;-33
2023/04/28 02:22:55;;;;;;;2.80;1.30;;;;;;;18.67;40.06;96791.19;5034232;28;20017;-29
2023/04/28 02:25:21;;;;;;;3.70;1.23;;;;;;;18.67;40.14;96792.69;5034165;28;20013;-30
2023/04/28 02:27:46;;;;;;;3.47;1.27;;;;;;;18.74;40.10;96791.56;5043603;28;20484;-30
2023/04/28 02:30:12;;;;;;;7.55;1.58;;;;;;;18.80;39.98;96803.41;5039017;28;20017;-30
2023/04/28 02:32:37;;;;;;;4.65;1.38;;;;;;;18.84;40.05;96797.75;5034067;28;20121;-29
2023/04/28 02:35:03;;;;;;;3.00;1.25;;;;;;;18.61;40.40;96799.31;5033657;28;20492;-30
2023/04/28 02:37:29;;;;;;;2.60;1.20;;;;;;;18.81;40.01;96791.19;5033916;28;20021;-30
2023/04/28 02:39:54;;;;;;;3.63;1.30;;;;;;;18.71;39.91;96797.25;5034444;28;20116;-30
2023/04/28 02:42:20;;;;;;;2.08;1.30;;;;;;;18.69;40.12;96792.22;5033597;28;20497;-30
2023/04/28 02:44:45;;;;;;;3.20;1.25;;;;;;;18.75;40.02;96784.84;5033899;28;20022;-30
2023/04/28 02:47:11;;;;;;;3.58;1.40;;;;;;;18.74;39.77;96788.81;5033695;28;20033;-31
2023/04/28 02:49:36;;;;;;;2.60;1.33;;;;;;;18.66;40.06;96779.44;5034164;28;20028;-31
2023/04/28 02:52:01;;;;;;;2.78;1.50;;;;;;;18.65;40.09;96783.41;5033257;28;20053;-30
2023/04/28 02:54:27;;;;;;;3.15;1.60;;;;;;;18.65;40.11;96786.16;5033749;28;20029;-30
2023/04/28 02:56:56;;;;;;;2.63;1.48;;;;;;;18.51;40.03;96782.13;5033505;28;20049;-30
2023/04/28 02:59:24;;;;;;;2.30;1.60;;;;;;;18.70;39.66;96780.00;5033506;28;20112;-32
2023/04/28 03:01:50;;;;;;;2.67;1.65;;;;;;;18.80;39.44;96786.94;5033913;28;20025;-30
2023/04/28 03:04:16;;;;;;;2.53;1.40;;;;;;;18.75;39.75;96782.09;5032135;28;20059;-30
2023/04/28 03:06:41;;;;;;;4.30;1.38;;;;;;;18.87;39.86;96783.81;5039297;28;20098;-29
2023/04/28 03:09:08;;;;;;;6.05;2.03;;;;;;;18.69;39.73;96783.97;5035630;28;20026;-30
2023/04/28 03:11:33;;;;;;;3.00;1.30;;;;;;;18.46;40.36;96782.00;5033473;28;20532;-30
2023/04/28 03:13:59;;;;;;;2.15;1.63;;;;;;;18.46;40.47;96782.75;5033169;28;20104;-30
2023/04/28 03:16:24;;;;;;;2.03;1.30;;;;;;;18.50;40.52;96788.84;5033099;28;20071;-30
2023/04/28 03:18:49;;;;;;;4.03;1.70;;;;;;;18.61;40.34;96789.09;5033467;28;20108;-31
2023/04/28 03:21:15;;;;;;;2.97;1.48;;;;;;;18.61;40.36;96785.59;5040194;28;20055;-30
2023/04/28 03:23:40;;;;;;;3.67;1.52;;;;;;;18.42;40.58;96784.94;5031995;28;20013;-30
2023/04/28 03:26:06;;;;;;;2.83;1.52;;;;;;;18.48;40.09;96791.31;5033338;28;20013;-30
2023/04/28 03:28:32;;;;;;;4.35;1.70;;;;;;;18.72;39.20;96782.28;5033043;28;20037;-30
2023/04/28 03:30:57;;;;;;;2.55;1.95;;;;;;;18.66;39.59;96793.19;5033551;28;20022;-32
2023/04/28 03:33:23;;;;;;;2.75;1.45;;;;;;;18.59;39.62;96797.03;5032943;28;20014;-30
2023/04/28 03:35:48;;;;;;;4.15;1.77;;;;;;;18.55;39.68;96806.66;5032877;28;20135;-30
2023/04/28 03:38:14;;;;;;;3.05;1.98;;;;;;;18.52;39.68;96802.13;5033295;28;20025;-31
2023/04/28 03:40:40;;;;;;;2.10;1.33;;;;;;;18.58;39.52;96794.75;5033604;28;20029;-31
2023/04/28 03:43:06;;;;;;;4.50;1.48;;;;;;;18.56;39.80;96791.69;5033114;28;20027;-32
2023/04/28 03:45:31;;;;;;;3.83;1.80;;;;;;;18.50;40.03;96791.59;5033150;28;20423;-32
2023/04/28 03:47:57;;;;;;;4.30;1.45;;;;;;;18.50;39.66;96790.84;5033185;28;20029;-29
2023/04/28 03:50:22;;;;;;;2.58;1.45;;;;;;;18.46;39.98;96791.00;5032878;28;20029;-30
2023/04/28 03:52:48;;;;;;;4.43;1.67;;;;;;;18.46;39.81;96795.75;5033197;28;20440;-30
2023/04/28 03:55:13;;;;;;;4.53;1.77;;;;;;;18.54;39.71;96799.66;5035393;28;20466;-30
2023/04/28 03:57:40;;;;;;;3.83;1.50;;;;;;;18.58;39.84;96794.75;5036949;28;20036;-30
2023/04/28 04:00:06;;;;;;;4.75;1.60;;;;;;;18.37;40.14;96782.84;5036685;28;20044;-29
2023/04/28 04:02:32;;;;;;;3.53;1.50;;;;;;;18.39;40.07;96787.88;5037294;28;20036;-30
2023/04/28 04:04:57;;;;;;;2.78;1.50;;;;;;;18.51;39.69;96795.09;5038672;28;20013;-29
2023/04/28 04:07:23;;;;;;;2.65;1.30;;;;;;;18.40;39.95;96784.66;5037019;28;20466;-30
2023/04/28 04:09:48;;;;;;;2.70;1.52;;;;;;;18.48;39.81;96785.03;5036714;28;20029;-29
2023/04/28 04:12:15;;;;;;;3.80;1.60;;;;;;;18.23;40.24;96787.06;5036736;28;20434;-30
2023/04/28 04:14:40;;;;;;;2.10;1.35;;;;;;;18.27;39.94;96787.66;5042086;28;20013;-31
2023/04/28 04:17:06;;;;;;;2.35;1.30;;;;;;;18.43;39.57;96793.91;5036565;28;20346;-30
2023/04/28 04:19:32;;;;;;;2.78;1.55;;;;;;;18.49;39.67;96792.06;5036110;28;20068;-30
2023/04/28 04:21:57;;;;;;;3.53;1.50;;;;;;;18.29;40.17;96798.94;5043594;28;20021;-30
2023/04/28 04:24:22;;;;;;;2.63;1.40;;;;;;;18.50;39.59;96804.56;5036558;28;20070;-29
2023/04/28 04:26:49;;;;;;;3.75;1.83;;;;;;;18.36;40.03;96799.78;5036275;28;20449;-30
2023/04/28 04:29:15;;;;;;;2.75;1.80;;;;;;;18.48;39.84;96794.03;5036543;28;20108;-31
2023/04/28 04:31:40;;;;;;;3.47;1.50;;;;;;;18.35;40.24;96801.00;5035803;28;20025;-31
2023/04/28 04:34:06;;;;;;;4.10;1.45;;;;;;;18.33;39.80;96800.72;5036221;28;20021;-30
2023/04/28 04:36:31;;;;;;;3.47;1.40;;;;;;;18.31;40.14;96804.69;5036079;28;20090;-30
2023/04/28 04:38:57;;;;;;;2.10;1.60;;;;;;;18.26;40.20;96808.09;5036128;28;20033;-30
2023/04/28 04:41:24;;;;;;;10.18;6.28;;;;;;;18.31;40.26;96815.66;5035882;28;20029;-32
2023/04/28 04:43:50;;;;;;;11.63;6.43;;;;;;;18.22;40.46;96817.72;5035808;28;20025;-30
2023/04/28 04:46:15;;;;;;;6.63;3.42;;;;;;;18.39;40.34;96824.31;5036005;28;20464;-30
2023/04/28 04:48:40;;;;;;;4.95;2.58;;;;;;;18.34;40.30;96824.19;5035728;28;20027;-30
2023/04/28 04:51:06;;;;;;;4.72;2.10;;;;;;;18.55;39.94;96825.88;5035909;28;20033;-31
2023/04/28 04:53:31;;;;;;;7.57;2.17;;;;;;;18.49;40.08;96823.03;5036174;28;20493;-31
2023/04/28 04:55:57;;;;;;;3.00;1.38;;;;;;;18.36;40.31;96830.75;5035826;28;20048;-29
2023/04/28 04:58:23;;;;;;;4.65;2.15;;;;;;;18.33;40.31;96828.16;5035566;28;20021;-30
2023/04/28 05:00:49;;;;;;;3.25;1.52;;;;;;;18.60;39.76;96831.53;5035303;28;20393;-31
2023/04/28 05:03:15;;;;;;;4.13;2.05;;;;;;;18.59;39.54;96838.25;5035925;28;20025;-31
2023/04/28 05:05:40;;;;;;;4.00;1.60;;;;;;;18.59;39.66;96834.72;5034769;28;20017;-30
2023/04/28 05:08:06;;;;;;;5.53;1.70;;;;;;;18.51;39.91;96831.56;5042577;28;20017;-32
2023/04/28 05:10:33;;;;;;;2.90;1.70;;;;;;;18.53;40.04;96834.59;5035499;28;20025;-30
2023/04/28 05:12:58;;;;;;;2.65;1.60;;;;;;;18.41;40.06;96829.34;5035671;28;20125;-30
2023/04/28 05:15:24;;;;;;;4.32;1.92;;;;;;;18.36;40.28;96832.72;5035557;28;20112;-31
2023/04/28 05:17:49;;;;;;;3.83;1.70;;;;;;;18.44;40.41;96839.38;5035309;28;20028;-30
2023/04/28 05:20:15;;;;;;;2.63;1.45;;;;;;;18.48;40.30;96845.47;5034928;28;20022;-29
2023/04/28 05:22:40;;;;;;;3.42;1.73;;;;;;;18.37;40.57;96845.25;5042925;28;20099;-30
2023/04/28 05:25:06;;;;;;;2.30;1.50;;;;;;;18.69;40.17;96849.91;5035210;28;20025;-31
2023/04/28 05:27:32;;;;;;;2.42;1.48;;;;;;;18.54;40.12;96849.09;5035503;28;20116;-31
2023/04/28 05:29:58;;;;;;;3.53;1.60;;;;;;;18.63;39.75;96840.81;5033963;28;20378;-30
2023/04/28 05:32:24;;;;;;;2.83;1.48;;;;;;;18.42;40.44;96839.13;5035269;28;20026;-30
2023/04/28 05:34:49;;;;;;;2.75;1.52;;;;;;;18.60;40.11;96836.25;5034795;28;20020;-30
2023/04/28 05:37:15;;;;;;;2.45;1.52;;;;;;;18.41;39.90;96832.09;5035149;28;20029;-30
2023/04/28 05:39:40;;;;;;;4.80;1.45;;;;;;;18.51;39.61;96837.06;5034960;28;20378;-29
2023/04/28 05:42:06;;;;;;;3.80;1.63;;;;;;;18.50;39.71;96840.28;5034715;28;20063;-29
2023/04/28 05:44:31;;;;;;;4.78;1.35;;;;;;;18.70;39.31;96834.94;5035259;28;20078;-31
2023/04/28 05:46:56;;;;;;;2.80;1.30;;;;;;;18.82;39.50;96842.16;5035349;28;20032;-30
2023/04/28 05:49:22;;;;;;;4.45;1.35;;;;;;;18.63;39.90;96836.09;5033784;28;20078;-30
2023/04/28 05:51:48;;;;;;;5.03;1.75;;;;;;;18.67;39.68;96846.88;5034568;28;20049;-29
2023/04/28 05:54:13;;;;;;;3.78;1.55;;;;;;;18.62;40.02;96864.00;5034847;28;20469;-31
2023/04/28 05:56:39;;;;;;;3.95;1.90;;;;;;;18.72;39.79;96859.97;5039888;28;20457;-30
2023/04/28 05:59:05;;;;;;;5.68;3.00;;;;;;;18.64;39.95;96853.31;5034343;28;20021;-31
2023/04/28 06:01:31;;;;;;;5.03;2.15;;;;;;;18.60;40.04;96850.00;5034592;28;20048;-29
2023/04/28 06:03:57;;;;;;;4.75;1.92;;;;;;;18.63;39.91;96851.81;5035144;28;20029;-30
2023/04/28 06:06:23;;;;;;;6.68;1.90;;;;;;;18.49;39.94;96856.00;5041672;28;20017;-30
2023/04/28 06:08:48;;;;;;;3.17;1.38;;;;;;;18.76;38.99;96852.31;5033152;28;20539;-31
2023/04/28 06:11:14;;;;;;;3.58;1.65;;;;;;;18.81;39.04;96853.63;5032935;28;20034;-31
2023/04/28 06:13:39;;;;;;;3.60;1.73;;;;;;;18.79;39.04;96853.38;5033142;28;20029;-32
2023/04/28 06:16:06;;;;;;;6.40;1.83;;;;;;;18.85;39.02;96854.22;5034266;28;20017;-31
2023/04/28 06:18:31;;;;;;;4.88;1.58;;;;;;;18.86;39.01;96869.47;5034082;28;20032;-31
2023/04/28 06:20:57;;;;;;;6.15;2.05;;;;;;;18.70;39.24;96862.41;5044267;28;20024;-30
2023/04/28 06:23:22;;;;;;;5.05;2.03;;;;;;;18.70;39.44;96867.91;5034352;28;20428;-30
2023/04/28 06:25:48;;;;;;;5.93;1.90;;;;;;;18.74;39.68;96885.00;5034019;28;20108;-30
2023/04/28 06:28:13;;;;;;;6.18;1.58;;;;;;;19.02;38.87;96880.81;5032726;28;20466;-29
2023/04/28 06:30:40;;;;;;;3.80;1.42;;;;;;;18.94;38.91;96878.88;5033728;28;20025;-29
2023/04/28 06:33:05;;;;;;;3.65;1.42;;;;;;;19.04;38.38;96876.81;5034215;28;20022;-29
2023/04/28 06:35:34;;;;;;;3.03;1.20;;;;;;;18.85;38.40;96884.44;5033688;28;20033;-29
2023/04/28 06:38:00;;;;;;;3.42;1.50;;;;;;;18.77;38.30;96892.31;5040170;28;20378;-29
2023/04/28 06:40:26;;;;;;;2.55;1.05;;;;;;;18.80;37.07;96893.31;5033811;28;20068;-29
2023/04/28 06:42:51;;;;;;;3.53;1.10;;;;;;;18.85;36.78;96890.72;5033750;28;20030;-29
2023/04/28 06:45:17;;;;;;;2.28;1.10;;;;;;;18.93;37.26;96896.59;5033670;28;20391;-29
2023/04/28 06:47:42;;;;;;;3.45;1.20;;;;;;;19.02;37.32;96886.31;5033484;28;20532;-29
2023/04/28 06:50:08;;;;;;;3.22;1.15;;;;;;;18.96;37.43;96896.41;5033686;28;20497;-29
2023/04/28 06:52:34;;;;;;;3.00;1.15;;;;;;;18.94;37.11;96901.63;5033415;28;20084;-29
2023/04/28 06:55:00;;;;;;;6.28;1.40;;;;;;;18.87;37.63;96904.75;5033383;28;20099;-30
2023/04/28 06:57:25;;;;;;;2.45;1.10;;;;;;;18.95;37.94;96905.88;5033385;28;20025;-29
2023/04/28 06:59:52;;;;;;;2.90;1.52;;;;;;;18.97;38.18;96913.66;5032673;28;20049;-31
2023/04/28 07:02:17;;;;;;;3.33;1.50;;;;;;;19.05;38.36;96914.06;5033471;28;20812;-29
2023/04/28 07:04:49;;;;;;;3.03;1.20;;;;;;;19.10;38.46;96905.16;5033329;28;20017;-29
2023/04/28 07:07:14;;;;;;;3.17;1.17;;;;;;;19.09;37.47;96909.91;5038294;28;20056;-29
2023/04/28 07:09:40;;;;;;;2.65;1.27;;;;;;;19.19;36.72;96913.31;5033502;28;20107;-30
2023/04/28 07:12:06;;;;;;;4.00;1.30;;;;;;;18.91;35.33;96915.56;5032747;28;20021;-29
2023/04/28 07:14:31;;;;;;;1.35;1.00;;;;;;;19.00;34.02;96921.75;5033399;28;20036;-29
2023/04/28 07:16:57;;;;;;;4.88;1.45;;;;;;;18.96;33.89;96923.91;5033161;28;20021;-30
2023/04/28 07:19:23;;;;;;;6.30;1.17;;;;;;;19.14;34.04;96917.50;5033112;28;20037;-29
2023/04/28 07:21:50;;;;;;;3.75;1.10;;;;;;;19.09;33.97;96920.13;5032834;28;20457;-29
2023/04/28 07:24:15;;;;;;;1.52;0.98;;;;;;;19.35;33.99;96918.38;5033160;28;20021;-29
2023/04/28 07:26:40;;;;;;;2.20;1.23;;;;;;;19.33;33.55;96915.34;5031859;28;20021;-29
2023/04/28 07:29:07;;;;;;;1.75;1.02;;;;;;;19.31;33.97;96913.06;5032324;28;20044;-29
2023/04/28 07:31:33;;;;;;;2.55;0.88;;;;;;;19.20;34.09;96912.84;5033184;28;20488;-29
2023/04/28 07:33:59;;;;;;;3.47;1.00;;;;;;;19.37;33.52;96913.19;5032725;28;20025;-30
2023/04/28 07:36:24;;;;;;;1.83;0.82;;;;;;;19.37;33.86;96915.94;5033165;28;20115;-28
2023/04/28 07:38:50;;;;;;;1.92;0.90;;;;;;;19.23;33.85;96914.69;5032912;28;20099;-29
2023/04/28 07:41:16;;;;;;;1.67;0.68;;;;;;;19.35;33.97;96921.91;5033133;28;20112;-29
2023/04/28 07:43:41;;;;;;;0.85;0.55;;;;;;;19.54;33.19;96928.00;5032796;28;20072;-29
2023/04/28 07:46:07;;;;;;;1.13;0.68;;;;;;;19.62;33.68;96926.41;5032694;28;20021;-29
2023/04/28 07:48:33;;;;;;;2.40;1.02;;;;;;;19.66;33.66;96924.22;5033238;28;20088;-29
2023/04/28 07:50:59;;;;;;;1.48;0.65;;;;;;;19.66;33.50;96932.47;5031554;28;20063;-30
2023/04/28 07:53:24;;;;;;;4.13;0.70;;;;;;;19.74;33.52;96921.84;5035347;28;20050;-29
2023/04/28 07:55:50;;;;;;;4.65;0.80;;;;;;;19.73;33.58;96923.84;5032640;28;20065;-29
2023/04/28 07:58:15;;;;;;;1.27;0.60;;;;;;;19.50;33.09;96916.44;5046295;28;20105;-33
2023/04/28 08:00:41;;;;;;;2.28;0.60;;;;;;;19.54;33.02;96911.50;5033187;28;20118;-29
2023/04/28 08:03:06;;;;;;;1.55;0.80;;;;;;;19.58;33.33;96912.06;5033082;28;20032;-29
2023/04/28 08:05:33;;;;;;;1.25;0.50;;;;;;;19.62;33.67;96909.13;5032838;28;20104;-29
2023/04/28 08:07:58;;;;;;;1.92;0.75;;;;;;;19.60;33.31;96909.59;5032656;28;20114;-29
2023/04/28 08:10:25;;;;;;;0.98;0.60;;;;;;;19.67;33.71;96911.22;5039808;28;20113;-29
2023/04/28 08:12:51;;;;;;;3.55;0.63;;;;;;;19.62;32.70;96914.63;5032735;28;20026;-29
2023/04/28 08:15:16;;;;;;;0.57;0.40;;;;;;;19.66;32.35;96909.69;5032397;28;20037;-29
2023/04/28 08:17:42;;;;;;;1.10;0.60;;;;;;;19.57;32.16;96927.06;5031579;28;20021;-29
2023/04/28 08:20:09;;;;;;;1.30;0.40;;;;;;;19.57;31.81;96916.06;5032501;28;20033;-29
2023/04/28 08:22:35;;;;;;;1.40;0.47;;;;;;;19.59;31.74;96919.09;5038349;28;20033;-29
2023/04/28 08:25:00;;;;;;;0.68;0.40;;;;;;;19.75;31.49;96917.09;5032928;28;20014;-29
2023/04/28 08:27:26;;;;;;;4.25;0.65;;;;;;;19.60;31.33;96914.34;5032800;28;20048;-29
2023/04/28 08:29:51;;;;;;;0.55;0.40;;;;;;;19.71;31.61;96909.03;5032392;28;20036;-30
2023/04/28 08:32:17;;;;;;;1.15;0.50;;;;;;;19.66;30.92;96901.44;5032470;28;20439;-29
2023/04/28 08:34:44;;;;;;;3.33;0.60;;;;;;;19.86;31.50;96909.03;5032317;28;20032;-30
2023/04/28 08:37:09;;;;;;;0.80;0.50;;;;;;;19.78;31.64;96907.91;5032533;28;20021;-29
2023/04/28 08:39:35;;;;;;;1.02;0.70;;;;;;;19.65;32.21;96910.94;5032720;28;20029;-30
2023/04/28 08:42:04;;;;;;;2.25;0.65;;;;;;;19.89;32.32;96919.84;5042857;28;20024;-29
2023/04/28 08:44:39;;;;;;;2.67;0.80;;;;;;;19.83;32.53;96912.72;5036120;28;20029;-30
2023/04/28 08:47:35;;;;;;;1.92;0.90;;;;;;;19.84;32.54;96909.50;5036853;28;20083;-29
2023/04/28 08:50:04;;;;;;;3.47;0.80;;;;;;;19.98;32.10;96905.22;5035598;28;20029;-29
2023/04/28 08:52:30;;;;;;;2.33;0.88;;;;;;;19.79;32.36;96914.91;5034712;28;20041;-30
2023/04/28 08:54:58;;;;;;;1.83;0.60;;;;;;;19.96;32.18;96902.19;5035799;28;20347;-30
2023/04/28 08:57:26;;;;;;;1.20;0.80;;;;;;;19.83;32.53;96904.47;5035816;28;20058;-29
2023/04/28 08:59:52;;;;;;;3.50;0.90;;;;;;;19.90;32.41;96909.59;5035599;28;20090;-29
2023/04/28 09:02:19;;;;;;;2.90;1.23;;;;;;;19.81;32.46;96909.69;5045118;28;20029;-30
2023/04/28 09:04:47;;;;;;;1.08;0.85;;;;;;;19.87;32.60;96916.81;5040550;28;20105;-30
2023/04/28 09:07:13;;;;;;;1.80;0.73;;;;;;;19.98;32.54;96917.00;5035143;28;20025;-29
2023/04/28 09:09:44;;;;;;;1.30;0.70;;;;;;;19.88;32.67;96918.34;5035763;28;20576;-29
2023/04/28 09:12:10;;;;;;;1.60;0.95;;;;;;;19.93;32.79;96925.91;5035372;28;20029;-29
2023/04/28 09:14:37;;;;;;;2.78;0.70;;;;;;;20.05;32.63;96921.34;5039447;28;20033;-30
2023/04/28 09:17:09;;;;;;;1.70;0.80;;;;;;;19.96;31.93;96908.44;5033989;28;20029;-29
2023/04/28 09:19:36;;;;;;;2.03;0.80;;;;;;;20.05;31.91;96916.59;5035782;28;20021;-29
2023/04/28 09:22:03;;;;;;;1.00;0.60;;;;;;;20.12;32.10;96909.19;5035299;28;20028;-29
2023/04/28 09:24:34;;;;;;;4.15;1.00;;;;;;;20.04;32.55;96920.56;5035240;28;20484;-29
2023/04/28 09:27:03;;;;;;;1.45;0.80;;;;;;;20.09;32.21;96917.16;5035222;28;20026;-29
2023/04/28 09:29:30;;;;;;;3.40;0.68;;;;;;;20.05;32.40;96927.59;5035174;28;20021;-30
2023/04/28 09:32:13;;;;;;;2.17;0.95;;;;;;;20.09;32.49;96932.91;5035344;28;20030;-29
2023/04/28 09:34:45;;;;;;;1.67;0.70;;;;;;;20.11;32.71;96924.94;5035008;28;20025;-29
2023/04/28 09:37:21;;;;;;;1.73;0.90;;;;;;;20.10;32.70;96928.94;5034945;28;20026;-29
2023/04/28 09:39:51;;;;;;;1.65;0.70;;;;;;;20.15;33.02;96928.28;5034923;28;20083;-29
2023/04/28 09:42:43;;;;;;;1.05;0.68;;;;;;;20.19;32.95;96914.28;5033388;28;20060;-30
2023/04/28 09:45:10;;;;;;;1.70;0.70;;;;;;;20.23;32.75;96921.13;5037034;28;20108;-29
2023/04/28 09:47:39;;;;;;;2.85;1.33;;;;;;;20.22;32.66;96914.09;5034944;28;20120;-29
2023/04/28 09:50:13;;;;;;;1.58;0.82;;;;;;;20.23;32.77;96915.63;5034784;28;20032;-30
2023/04/28 09:52:55;;;;;;;4.20;1.17;;;;;;;20.19;33.08;96920.56;5033895;28;20041;-30
2023/04/28 09:55:21;;;;;;;2.50;0.73;;;;;;;20.16;32.80;96918.75;5034860;28;20032;-29
2023/04/28 09:57:48;;;;;;;1.35;0.68;;;;;;;20.33;33.04;96908.75;5034977;28;20025;-30
2023/04/28 10:00:15;;;;;;;2.58;0.85;;;;;;;20.18;33.31;96907.25;5034562;28;20122;-30
2023/04/28 10:02:42;;;;;;;1.77;0.75;;;;;;;20.25;33.49;96898.63;5039957;28;20032;-29
2023/04/28 10:05:08;;;;;;;1.67;0.70;;;;;;;20.18;34.30;96901.75;5036169;28;20021;-29
2023/04/28 10:07:34;;;;;;;2.13;0.77;;;;;;;20.27;34.64;96907.91;5034433;28;20040;-29
2023/04/28 10:10:00;;;;;;;2.75;0.65;;;;;;;20.35;34.68;96911.03;5034460;28;20021;-29
2023/04/28 10:12:26;;;;;;;3.90;0.80;;;;;;;20.37;35.12;96909.34;5034293;28;20035;-29
2023/04/28 10:14:56;;;;;;;3.95;1.20;;;;;;;20.30;35.45;96908.94;5034157;28;20104;-30
2023/04/28 10:17:24;;;;;;;3.03;0.82;;;;;;;20.36;35.74;96901.56;5034379;28;20112;-30
2023/04/28 10:19:52;;;;;;;2.47;0.82;;;;;;;20.29;36.22;96905.41;5034123;28;20017;-30
2023/04/28 10:22:58;;;;;;;4.63;1.20;;;;;;;20.32;36.70;96900.94;5040531;28;20017;-29
2023/04/28 10:25:29;;;;;;;2.90;0.88;;;;;;;20.43;37.36;96906.66;5033958;28;20024;-29
2023/04/28 10:27:56;;;;;;;4.50;0.68;;;;;;;20.29;38.18;96894.41;5034007;28;20025;-29
2023/04/28 10:30:24;;;;;;;4.60;0.95;;;;;;;20.52;38.28;96892.00;5033985;28;20029;-30
2023/04/28 10:33:12;;;;;;;3.53;1.20;;;;;;;20.45;38.82;96898.66;5034399;28;20025;-30
2023/04/28 10:35:47;;;;;;;4.47;1.42;;;;;;;20.40;39.50;96891.84;5040516;28;20084;-29
2023/04/28 10:38:17;;;;;;;4.60;0.70;;;;;;;20.53;39.78;96893.50;5034025;28;20024;-29
2023/04/28 10:40:53;;;;;;;6.43;1.15;;;;;;;20.55;40.20;96882.75;5033982;28;20457;-29
2023/04/28 10:43:24;;;;;;;1.70;0.80;;;;;;;20.49;40.76;96884.69;5032556;28;20377;-29
2023/04/28 10:45:53;;;;;;;6.45;1.33;;;;;;;20.50;40.55;96877.94;5034122;28;20017;-29
2023/04/28 10:48:20;;;;;;;3.35;0.68;;;;;;;20.57;40.72;96888.53;5033715;28;20060;-29
2023/04/28 10:51:08;;;;;;;3.58;0.93;;;;;;;20.59;40.58;96883.31;5033700;28;20021;-29
2023/04/28 10:53:45;;;;;;;4.03;0.93;;;;;;;20.51;41.35;96888.50;5033617;28;20072;-29
2023/04/28 10:56:15;;;;;;;1.63;0.88;;;;;;;20.66;41.07;96893.91;5032674;28;20394;-29
2023/04/28 10:58:44;;;;;;;3.70;1.17;;;;;;;20.60;41.62;96890.34;5033531;28;20056;-30
2023/04/28 11:01:25;;;;;;;1.30;0.90;;;;;;;20.60;41.80;96880.09;5033525;28;20049;-29
2023/04/28 11:04:12;;;;;;;4.72;0.90;;;;;;;20.63;42.05;96872.84;5040773;28;20083;-29
2023/04/28 11:06:39;;;;;;;3.72;1.00;;;;;;;20.65;42.09;96873.88;5033638;28;20021;-29
2023/04/28 11:09:14;;;;;;;2.83;1.00;;;;;;;20.70;42.21;96875.94;5033450;28;20029;-29
2023/04/28 11:12:05;;;;;;;2.83;1.10;;;;;;;20.71;42.03;96871.19;5033451;28;20469;-29
2023/04/28 11:14:35;;;;;;;2.55;1.50;;;;;;;20.65;42.77;96873.09;5033442;28;20025;-29
2023/04/28 11:17:03;;;;;;;2.75;1.10;;;;;;;20.78;42.69;96890.81;5038031;28;20477;-30
2023/04/28 11:19:32;;;;;;;5.68;1.30;;;;;;;20.68;43.27;96877.66;5033021;28;20017;-29
2023/04/28 11:22:00;;;;;;;2.42;1.10;;;;;;;20.76;43.37;96876.78;5033487;28;20025;-29
2023/04/28 11:24:30;;;;;;;2.25;1.13;;;;;;;20.68;43.23;96866.63;5033057;28;20029;-29
2023/04/28 11:26:58;;;;;;;1.70;1.00;;;;;;;20.77;43.16;96858.25;5033651;28;20392;-29
2023/04/28 11:29:38;;;;;;;2.97;1.20;;;;;;;20.76;43.48;96865.75;5033058;28;20025;-29
2023/04/28 11:32:05;;;;;;;4.00;1.10;;;;;;;20.86;43.01;96863.59;5032935;28;20021;-29
2023/04/28 11:34:31;;;;;;;3.35;1.05;;;;;;;20.83;43.01;96861.06;5032977;28;20022;-29